sensor_id;sensor_type;location;lat;lon;timestamp;P1;durP1;ratioP1;P2;durP2;ratioP2
41643;SDS011;44236;48.098;11.582;2023-02-21T00:02:08;6.85;;;2.40;;
41643;SDS011;44236;48.098;11.582;2023-02-21T00:04:53;3.65;;;2.00;;
41643;SDS011;44236;48.098;11.582;2023-02-21T00:07:37;3.85;;;2.22;;
41643;SDS011;44236;48.098;11.582;2023-02-21T00:10:21;5.97;;;2.10;;
41643;SDS011;44236;48.098;11.582;2023-02-21T00:13:06;4.25;;;2.10;;
41643;SDS011;44236;48.098;11.582;2023-02-21T00:15:51;5.38;;;2.40;;
41643;SDS011;44236;48.098;11.582;2023-02-21T00:18:35;5.80;;;2.15;;
41643;SDS011;44236;48.098;11.582;2023-02-21T00:21:20;3.80;;;1.90;;
41643;SDS011;44236;48.098;11.582;2023-02-21T00:24:04;8.15;;;2.22;;
41643;SDS011;44236;48.098;11.582;2023-02-21T00:26:49;4.72;;;1.65;;
41643;SDS011;44236;48.098;11.582;2023-02-21T00:29:33;4.30;;;2.10;;
41643;SDS011;44236;48.098;11.582;2023-02-21T00:32:17;4.95;;;2.20;;
41643;SDS011;44236;48.098;11.582;2023-02-21T00:35:01;3.30;;;1.95;;
41643;SDS011;44236;48.098;11.582;2023-02-21T00:37:48;3.53;;;1.90;;
41643;SDS011;44236;48.098;11.582;2023-02-21T00:40:33;4.18;;;1.90;;
41643;SDS011;44236;48.098;11.582;2023-02-21T00:43:17;3.20;;;1.70;;
41643;SDS011;44236;48.098;11.582;2023-02-21T00:46:02;2.72;;;1.50;;
41643;SDS011;44236;48.098;11.582;2023-02-21T00:48:46;3.60;;;1.60;;
41643;SDS011;44236;48.098;11.582;2023-02-21T00:51:30;3.85;;;2.00;;
41643;SDS011;44236;48.098;11.582;2023-02-21T00:54:14;3.88;;;1.58;;
41643;SDS011;44236;48.098;11.582;2023-02-21T00:56:58;3.75;;;1.83;;
41643;SDS011;44236;48.098;11.582;2023-02-21T00:59:42;4.53;;;2.17;;
41643;SDS011;44236;48.098;11.582;2023-02-21T01:02:30;2.97;;;1.60;;
41643;SDS011;44236;48.098;11.582;2023-02-21T01:05:14;3.60;;;1.70;;
41643;SDS011;44236;48.098;11.582;2023-02-21T01:07:58;3.63;;;1.83;;
41643;SDS011;44236;48.098;11.582;2023-02-21T01:10:42;4.40;;;1.80;;
41643;SDS011;44236;48.098;11.582;2023-02-21T01:13:26;2.75;;;1.40;;
41643;SDS011;44236;48.098;11.582;2023-02-21T01:16:10;3.15;;;1.42;;
41643;SDS011;44236;48.098;11.582;2023-02-21T01:18:54;4.75;;;2.00;;
41643;SDS011;44236;48.098;11.582;2023-02-21T01:21:38;2.92;;;1.40;;
41643;SDS011;44236;48.098;11.582;2023-02-21T01:24:22;4.00;;;1.70;;
41643;SDS011;44236;48.098;11.582;2023-02-21T01:27:07;2.80;;;1.40;;
41643;SDS011;44236;48.098;11.582;2023-02-21T01:29:51;3.08;;;1.60;;
41643;SDS011;44236;48.098;11.582;2023-02-21T01:32:35;3.92;;;2.05;;
41643;SDS011;44236;48.098;11.582;2023-02-21T01:35:19;2.78;;;1.40;;
41643;SDS011;44236;48.098;11.582;2023-02-21T01:38:03;3.40;;;1.90;;
41643;SDS011;44236;48.098;11.582;2023-02-21T01:40:47;3.13;;;1.73;;
41643;SDS011;44236;48.098;11.582;2023-02-21T01:43:31;3.47;;;1.73;;
41643;SDS011;44236;48.098;11.582;2023-02-21T01:46:18;3.70;;;1.83;;
41643;SDS011;44236;48.098;11.582;2023-02-21T01:49:04;2.70;;;1.55;;
41643;SDS011;44236;48.098;11.582;2023-02-21T01:51:54;2.55;;;1.40;;
41643;SDS011;44236;48.098;11.582;2023-02-21T01:54:41;3.17;;;1.70;;
41643;SDS011;44236;48.098;11.582;2023-02-21T01:57:28;4.10;;;1.35;;
41643;SDS011;44236;48.098;11.582;2023-02-21T02:00:14;4.15;;;1.60;;
41643;SDS011;44236;48.098;11.582;2023-02-21T02:03:01;3.72;;;1.50;;
41643;SDS011;44236;48.098;11.582;2023-02-21T02:05:48;3.25;;;1.48;;
41643;SDS011;44236;48.098;11.582;2023-02-21T02:08:34;2.35;;;1.50;;
41643;SDS011;44236;48.098;11.582;2023-02-21T02:37:22;3.53;;;1.52;;
41643;SDS011;44236;48.098;11.582;2023-02-21T02:43:19;2.72;;;1.45;;
41643;SDS011;44236;48.098;11.582;2023-02-21T02:45:47;1.88;;;1.25;;
41643;SDS011;44236;48.098;11.582;2023-02-21T02:48:39;3.20;;;1.67;;
41643;SDS011;44236;48.098;11.582;2023-02-21T02:51:11;2.80;;;1.40;;
41643;SDS011;44236;48.098;11.582;2023-02-21T02:53:38;5.28;;;1.40;;
41643;SDS011;44236;48.098;11.582;2023-02-21T02:56:08;2.45;;;1.40;;
41643;SDS011;44236;48.098;11.582;2023-02-21T02:58:36;2.58;;;1.30;;
41643;SDS011;44236;48.098;11.582;2023-02-21T03:03:53;2.58;;;1.25;;
41643;SDS011;44236;48.098;11.582;2023-02-21T03:17:37;2.08;;;1.10;;
41643;SDS011;44236;48.098;11.582;2023-02-21T03:20:06;2.72;;;1.48;;
41643;SDS011;44236;48.098;11.582;2023-02-21T03:22:34;3.60;;;1.50;;
41643;SDS011;44236;48.098;11.582;2023-02-21T03:25:00;2.38;;;1.35;;
41643;SDS011;44236;48.098;11.582;2023-02-21T03:27:27;2.67;;;1.63;;
41643;SDS011;44236;48.098;11.582;2023-02-21T03:29:55;2.53;;;1.20;;
41643;SDS011;44236;48.098;11.582;2023-02-21T03:32:44;3.10;;;1.35;;
41643;SDS011;44236;48.098;11.582;2023-02-21T03:35:12;3.53;;;1.45;;
41643;SDS011;44236;48.098;11.582;2023-02-21T03:37:43;3.40;;;1.67;;
41643;SDS011;44236;48.098;11.582;2023-02-21T03:40:22;4.15;;;1.48;;
41643;SDS011;44236;48.098;11.582;2023-02-21T03:42:53;6.30;;;1.90;;
41643;SDS011;44236;48.098;11.582;2023-02-21T03:45:20;3.35;;;1.40;;
41643;SDS011;44236;48.098;11.582;2023-02-21T03:47:46;2.22;;;1.50;;
41643;SDS011;44236;48.098;11.582;2023-02-21T03:50:12;2.63;;;1.40;;
41643;SDS011;44236;48.098;11.582;2023-02-21T03:52:38;1.55;;;1.20;;
41643;SDS011;44236;48.098;11.582;2023-02-21T03:55:04;3.50;;;1.90;;
41643;SDS011;44236;48.098;11.582;2023-02-21T03:57:31;2.35;;;1.38;;
41643;SDS011;44236;48.098;11.582;2023-02-21T03:59:56;2.00;;;1.30;;
41643;SDS011;44236;48.098;11.582;2023-02-21T04:02:22;3.03;;;1.23;;
41643;SDS011;44236;48.098;11.582;2023-02-21T04:04:48;3.05;;;1.50;;
41643;SDS011;44236;48.098;11.582;2023-02-21T04:07:14;2.70;;;1.55;;
41643;SDS011;44236;48.098;11.582;2023-02-21T04:09:41;2.35;;;1.30;;
41643;SDS011;44236;48.098;11.582;2023-02-21T04:12:06;2.33;;;1.30;;
41643;SDS011;44236;48.098;11.582;2023-02-21T04:14:32;2.80;;;1.33;;
41643;SDS011;44236;48.098;11.582;2023-02-21T04:16:58;1.77;;;1.20;;
41643;SDS011;44236;48.098;11.582;2023-02-21T04:19:27;2.28;;;1.42;;
41643;SDS011;44236;48.098;11.582;2023-02-21T04:21:53;2.17;;;1.25;;
41643;SDS011;44236;48.098;11.582;2023-02-21T04:24:18;2.20;;;1.10;;
41643;SDS011;44236;48.098;11.582;2023-02-21T04:26:44;2.83;;;1.40;;
41643;SDS011;44236;48.098;11.582;2023-02-21T04:29:10;3.35;;;1.38;;
41643;SDS011;44236;48.098;11.582;2023-02-21T04:31:36;3.13;;;1.48;;
41643;SDS011;44236;48.098;11.582;2023-02-21T04:34:02;3.47;;;1.30;;
41643;SDS011;44236;48.098;11.582;2023-02-21T04:36:28;1.63;;;1.10;;
41643;SDS011;44236;48.098;11.582;2023-02-21T04:38:53;2.38;;;1.20;;
41643;SDS011;44236;48.098;11.582;2023-02-21T04:41:19;3.72;;;1.60;;
41643;SDS011;44236;48.098;11.582;2023-02-21T04:43:45;1.60;;;1.00;;
41643;SDS011;44236;48.098;11.582;2023-02-21T04:46:15;2.83;;;1.35;;
41643;SDS011;44236;48.098;11.582;2023-02-21T04:48:42;1.65;;;1.13;;
41643;SDS011;44236;48.098;11.582;2023-02-21T04:51:09;2.15;;;1.10;;
41643;SDS011;44236;48.098;11.582;2023-02-21T04:53:35;2.45;;;1.38;;
41643;SDS011;44236;48.098;11.582;2023-02-21T04:56:00;2.08;;;1.17;;
41643;SDS011;44236;48.098;11.582;2023-02-21T04:58:26;2.35;;;1.38;;
41643;SDS011;44236;48.098;11.582;2023-02-21T05:00:51;1.90;;;1.15;;
41643;SDS011;44236;48.098;11.582;2023-02-21T05:03:17;1.77;;;1.20;;
41643;SDS011;44236;48.098;11.582;2023-02-21T05:05:43;2.92;;;1.42;;
41643;SDS011;44236;48.098;11.582;2023-02-21T05:08:08;2.10;;;1.20;;
41643;SDS011;44236;48.098;11.582;2023-02-21T05:10:34;2.03;;;1.30;;
41643;SDS011;44236;48.098;11.582;2023-02-21T05:12:59;4.40;;;1.25;;
41643;SDS011;44236;48.098;11.582;2023-02-21T05:15:25;2.05;;;1.17;;
41643;SDS011;44236;48.098;11.582;2023-02-21T05:17:51;1.95;;;1.05;;
41643;SDS011;44236;48.098;11.582;2023-02-21T05:20:16;1.48;;;1.10;;
41643;SDS011;44236;48.098;11.582;2023-02-21T05:22:42;1.83;;;1.05;;
41643;SDS011;44236;48.098;11.582;2023-02-21T05:25:18;2.10;;;1.10;;
41643;SDS011;44236;48.098;11.582;2023-02-21T05:27:45;3.05;;;1.58;;
41643;SDS011;44236;48.098;11.582;2023-02-21T05:30:11;1.75;;;1.13;;
41643;SDS011;44236;48.098;11.582;2023-02-21T05:32:39;2.08;;;1.10;;
41643;SDS011;44236;48.098;11.582;2023-02-21T05:35:05;1.88;;;1.02;;
41643;SDS011;44236;48.098;11.582;2023-02-21T05:37:31;1.92;;;1.20;;
41643;SDS011;44236;48.098;11.582;2023-02-21T05:39:57;1.35;;;0.90;;
41643;SDS011;44236;48.098;11.582;2023-02-21T05:42:23;2.50;;;1.20;;
41643;SDS011;44236;48.098;11.582;2023-02-21T05:44:49;1.73;;;1.20;;
41643;SDS011;44236;48.098;11.582;2023-02-21T05:47:14;2.22;;;1.10;;
41643;SDS011;44236;48.098;11.582;2023-02-21T05:49:41;2.08;;;1.15;;
41643;SDS011;44236;48.098;11.582;2023-02-21T05:52:09;3.08;;;0.95;;
41643;SDS011;44236;48.098;11.582;2023-02-21T05:54:36;2.05;;;0.95;;
41643;SDS011;44236;48.098;11.582;2023-02-21T05:57:02;4.25;;;1.30;;
41643;SDS011;44236;48.098;11.582;2023-02-21T05:59:28;5.40;;;2.53;;
41643;SDS011;44236;48.098;11.582;2023-02-21T06:01:53;4.22;;;1.40;;
41643;SDS011;44236;48.098;11.582;2023-02-21T06:04:20;5.50;;;1.83;;
41643;SDS011;44236;48.098;11.582;2023-02-21T06:06:46;3.40;;;1.75;;
41643;SDS011;44236;48.098;11.582;2023-02-21T06:09:12;7.22;;;2.10;;
41643;SDS011;44236;48.098;11.582;2023-02-21T06:11:38;3.47;;;1.40;;
41643;SDS011;44236;48.098;11.582;2023-02-21T06:14:06;2.50;;;1.25;;
41643;SDS011;44236;48.098;11.582;2023-02-21T06:16:36;6.63;;;1.70;;
41643;SDS011;44236;48.098;11.582;2023-02-21T06:19:03;4.05;;;1.50;;
41643;SDS011;44236;48.098;11.582;2023-02-21T06:21:30;2.97;;;1.15;;
41643;SDS011;44236;48.098;11.582;2023-02-21T06:23:57;3.83;;;1.30;;
41643;SDS011;44236;48.098;11.582;2023-02-21T06:26:23;6.35;;;1.55;;
41643;SDS011;44236;48.098;11.582;2023-02-21T06:28:49;8.57;;;1.75;;
41643;SDS011;44236;48.098;11.582;2023-02-21T06:31:15;6.10;;;1.85;;
41643;SDS011;44236;48.098;11.582;2023-02-21T06:33:41;7.43;;;2.20;;
41643;SDS011;44236;48.098;11.582;2023-02-21T06:36:09;11.35;;;3.55;;
41643;SDS011;44236;48.098;11.582;2023-02-21T06:38:37;10.18;;;2.75;;
41643;SDS011;44236;48.098;11.582;2023-02-21T06:41:07;9.48;;;2.80;;
41643;SDS011;44236;48.098;11.582;2023-02-21T06:43:33;6.05;;;1.98;;
41643;SDS011;44236;48.098;11.582;2023-02-21T06:46:02;10.55;;;1.75;;
41643;SDS011;44236;48.098;11.582;2023-02-21T06:48:28;15.02;;;4.63;;
41643;SDS011;44236;48.098;11.582;2023-02-21T06:50:54;17.85;;;4.00;;
41643;SDS011;44236;48.098;11.582;2023-02-21T06:53:20;11.73;;;3.10;;
41643;SDS011;44236;48.098;11.582;2023-02-21T06:55:45;10.20;;;2.97;;
41643;SDS011;44236;48.098;11.582;2023-02-21T06:58:11;10.68;;;2.90;;
41643;SDS011;44236;48.098;11.582;2023-02-21T07:00:37;10.75;;;3.40;;
41643;SDS011;44236;48.098;11.582;2023-02-21T07:03:03;11.45;;;3.15;;
41643;SDS011;44236;48.098;11.582;2023-02-21T07:05:28;9.73;;;2.85;;
41643;SDS011;44236;48.098;11.582;2023-02-21T07:07:58;6.32;;;2.63;;
41643;SDS011;44236;48.098;11.582;2023-02-21T07:10:27;7.55;;;2.60;;
41643;SDS011;44236;48.098;11.582;2023-02-21T07:12:54;9.23;;;2.75;;
41643;SDS011;44236;48.098;11.582;2023-02-21T07:15:20;7.35;;;2.25;;
41643;SDS011;44236;48.098;11.582;2023-02-21T07:17:45;7.85;;;2.42;;
41643;SDS011;44236;48.098;11.582;2023-02-21T07:20:11;9.13;;;2.53;;
41643;SDS011;44236;48.098;11.582;2023-02-21T07:22:37;5.82;;;2.38;;
41643;SDS011;44236;48.098;11.582;2023-02-21T07:25:02;7.82;;;2.55;;
41643;SDS011;44236;48.098;11.582;2023-02-21T07:27:28;4.95;;;2.13;;
41643;SDS011;44236;48.098;11.582;2023-02-21T07:29:54;7.43;;;2.10;;
41643;SDS011;44236;48.098;11.582;2023-02-21T07:32:19;8.00;;;2.20;;
41643;SDS011;44236;48.098;11.582;2023-02-21T07:34:46;5.60;;;2.30;;
41643;SDS011;44236;48.098;11.582;2023-02-21T07:37:12;7.93;;;1.75;;
41643;SDS011;44236;48.098;11.582;2023-02-21T07:39:38;9.23;;;2.13;;
41643;SDS011;44236;48.098;11.582;2023-02-21T07:42:04;6.00;;;2.35;;
41643;SDS011;44236;48.098;11.582;2023-02-21T07:44:32;4.45;;;1.63;;
41643;SDS011;44236;48.098;11.582;2023-02-21T07:46:57;4.18;;;1.85;;
41643;SDS011;44236;48.098;11.582;2023-02-21T07:49:23;7.82;;;2.60;;
41643;SDS011;44236;48.098;11.582;2023-02-21T07:51:49;4.85;;;1.50;;
41643;SDS011;44236;48.098;11.582;2023-02-21T07:54:15;6.00;;;2.55;;
41643;SDS011;44236;48.098;11.582;2023-02-21T07:56:45;8.75;;;2.20;;
41643;SDS011;44236;48.098;11.582;2023-02-21T07:59:12;6.65;;;1.60;;
41643;SDS011;44236;48.098;11.582;2023-02-21T08:01:38;5.80;;;1.83;;
41643;SDS011;44236;48.098;11.582;2023-02-21T08:04:07;10.23;;;1.75;;
41643;SDS011;44236;48.098;11.582;2023-02-21T08:06:33;13.98;;;2.20;;
41643;SDS011;44236;48.098;11.582;2023-02-21T08:08:59;5.55;;;1.80;;
41643;SDS011;44236;48.098;11.582;2023-02-21T08:11:25;7.60;;;2.13;;
41643;SDS011;44236;48.098;11.582;2023-02-21T08:13:50;7.47;;;2.22;;
41643;SDS011;44236;48.098;11.582;2023-02-21T08:16:16;12.02;;;2.05;;
41643;SDS011;44236;48.098;11.582;2023-02-21T08:18:42;6.43;;;1.98;;
41643;SDS011;44236;48.098;11.582;2023-02-21T08:21:10;5.50;;;1.50;;
41643;SDS011;44236;48.098;11.582;2023-02-21T08:23:35;5.82;;;1.85;;
41643;SDS011;44236;48.098;11.582;2023-02-21T08:26:02;6.63;;;1.63;;
41643;SDS011;44236;48.098;11.582;2023-02-21T08:28:28;4.60;;;1.95;;
41643;SDS011;44236;48.098;11.582;2023-02-21T08:30:54;5.75;;;1.50;;
41643;SDS011;44236;48.098;11.582;2023-02-21T08:33:20;4.05;;;1.75;;
41643;SDS011;44236;48.098;11.582;2023-02-21T08:35:46;5.55;;;1.77;;
41643;SDS011;44236;48.098;11.582;2023-02-21T08:38:11;6.03;;;1.60;;
41643;SDS011;44236;48.098;11.582;2023-02-21T08:40:37;6.10;;;1.83;;
41643;SDS011;44236;48.098;11.582;2023-02-21T08:43:03;5.63;;;1.30;;
41643;SDS011;44236;48.098;11.582;2023-02-21T08:45:29;5.97;;;1.35;;
41643;SDS011;44236;48.098;11.582;2023-02-21T08:47:56;10.15;;;1.67;;
41643;SDS011;44236;48.098;11.582;2023-02-21T08:50:23;4.03;;;1.70;;
41643;SDS011;44236;48.098;11.582;2023-02-21T08:52:50;4.90;;;1.58;;
41643;SDS011;44236;48.098;11.582;2023-02-21T08:55:17;5.13;;;1.63;;
41643;SDS011;44236;48.098;11.582;2023-02-21T08:57:43;4.47;;;1.40;;
41643;SDS011;44236;48.098;11.582;2023-02-21T09:00:12;2.97;;;1.45;;
41643;SDS011;44236;48.098;11.582;2023-02-21T09:02:38;4.35;;;1.95;;
41643;SDS011;44236;48.098;11.582;2023-02-21T09:05:14;6.55;;;1.52;;
41643;SDS011;44236;48.098;11.582;2023-02-21T09:07:43;3.92;;;1.17;;
41643;SDS011;44236;48.098;11.582;2023-02-21T09:10:12;3.08;;;0.90;;
41643;SDS011;44236;48.098;11.582;2023-02-21T09:12:37;4.57;;;1.52;;
41643;SDS011;44236;48.098;11.582;2023-02-21T09:15:04;6.03;;;1.88;;
41643;SDS011;44236;48.098;11.582;2023-02-21T09:17:30;4.05;;;1.60;;
41643;SDS011;44236;48.098;11.582;2023-02-21T09:20:02;4.95;;;1.92;;
41643;SDS011;44236;48.098;11.582;2023-02-21T09:22:30;6.43;;;1.75;;
41643;SDS011;44236;48.098;11.582;2023-02-21T09:24:56;3.10;;;1.30;;
41643;SDS011;44236;48.098;11.582;2023-02-21T09:27:25;5.53;;;1.80;;
41643;SDS011;44236;48.098;11.582;2023-02-21T09:30:02;5.70;;;1.40;;
41643;SDS011;44236;48.098;11.582;2023-02-21T09:32:32;9.38;;;1.80;;
41643;SDS011;44236;48.098;11.582;2023-02-21T09:34:58;4.35;;;1.50;;
41643;SDS011;44236;48.098;11.582;2023-02-21T09:37:24;2.53;;;1.05;;
41643;SDS011;44236;48.098;11.582;2023-02-21T09:39:50;5.00;;;1.17;;
41643;SDS011;44236;48.098;11.582;2023-02-21T09:42:16;7.10;;;1.73;;
41643;SDS011;44236;48.098;11.582;2023-02-21T09:44:43;4.80;;;1.25;;
41643;SDS011;44236;48.098;11.582;2023-02-21T09:47:12;4.35;;;1.40;;
41643;SDS011;44236;48.098;11.582;2023-02-21T09:49:54;5.82;;;2.10;;
41643;SDS011;44236;48.098;11.582;2023-02-21T09:52:28;3.15;;;1.45;;
41643;SDS011;44236;48.098;11.582;2023-02-21T09:55:07;3.63;;;1.50;;
41643;SDS011;44236;48.098;11.582;2023-02-21T09:57:36;3.30;;;1.50;;
41643;SDS011;44236;48.098;11.582;2023-02-21T10:00:05;5.93;;;1.40;;
41643;SDS011;44236;48.098;11.582;2023-02-21T10:02:49;3.78;;;1.50;;
41643;SDS011;44236;48.098;11.582;2023-02-21T10:08:21;4.20;;;1.38;;
41643;SDS011;44236;48.098;11.582;2023-02-21T10:16:21;3.67;;;1.33;;
41643;SDS011;44236;48.098;11.582;2023-02-21T10:21:24;3.88;;;1.35;;
41643;SDS011;44236;48.098;11.582;2023-02-21T10:23:54;3.97;;;1.30;;
41643;SDS011;44236;48.098;11.582;2023-02-21T10:26:25;3.30;;;1.30;;
41643;SDS011;44236;48.098;11.582;2023-02-21T10:28:52;3.38;;;1.33;;
41643;SDS011;44236;48.098;11.582;2023-02-21T10:31:24;3.90;;;1.33;;
41643;SDS011;44236;48.098;11.582;2023-02-21T10:34:05;3.95;;;1.45;;
41643;SDS011;44236;48.098;11.582;2023-02-21T10:36:35;5.10;;;1.30;;
41643;SDS011;44236;48.098;11.582;2023-02-21T10:41:39;4.82;;;1.42;;
41643;SDS011;44236;48.098;11.582;2023-02-21T10:44:19;2.53;;;1.40;;
41643;SDS011;44236;48.098;11.582;2023-02-21T10:46:53;2.97;;;1.45;;
41643;SDS011;44236;48.098;11.582;2023-02-21T10:52:04;2.30;;;1.23;;
41643;SDS011;44236;48.098;11.582;2023-02-21T10:54:33;5.35;;;1.70;;
41643;SDS011;44236;48.098;11.582;2023-02-21T10:56:59;3.67;;;1.20;;
41643;SDS011;44236;48.098;11.582;2023-02-21T10:59:27;5.15;;;1.63;;
41643;SDS011;44236;48.098;11.582;2023-02-21T11:01:56;4.65;;;1.40;;
41643;SDS011;44236;48.098;11.582;2023-02-21T11:04:24;4.15;;;1.23;;
41643;SDS011;44236;48.098;11.582;2023-02-21T11:09:35;3.40;;;1.23;;
41643;SDS011;44236;48.098;11.582;2023-02-21T11:14:35;6.10;;;1.60;;
41643;SDS011;44236;48.098;11.582;2023-02-21T11:17:10;2.53;;;1.23;;
41643;SDS011;44236;48.098;11.582;2023-02-21T11:19:44;4.85;;;1.30;;
41643;SDS011;44236;48.098;11.582;2023-02-21T11:22:11;4.38;;;1.20;;
41643;SDS011;44236;48.098;11.582;2023-02-21T11:27:44;5.65;;;1.13;;
41643;SDS011;44236;48.098;11.582;2023-02-21T11:33:23;3.25;;;1.48;;
41643;SDS011;44236;48.098;11.582;2023-02-21T11:35:50;5.00;;;1.52;;
41643;SDS011;44236;48.098;11.582;2023-02-21T11:38:38;1.80;;;1.00;;
41643;SDS011;44236;48.098;11.582;2023-02-21T11:41:17;2.42;;;1.15;;
41643;SDS011;44236;48.098;11.582;2023-02-21T11:43:58;3.58;;;1.30;;
41643;SDS011;44236;48.098;11.582;2023-02-21T11:46:36;5.20;;;1.40;;
41643;SDS011;44236;48.098;11.582;2023-02-21T11:49:21;2.22;;;1.15;;
41643;SDS011;44236;48.098;11.582;2023-02-21T11:52:11;2.20;;;1.20;;
41643;SDS011;44236;48.098;11.582;2023-02-21T11:55:00;7.93;;;1.20;;
41643;SDS011;44236;48.098;11.582;2023-02-21T12:00:45;2.47;;;1.10;;
41643;SDS011;44236;48.098;11.582;2023-02-21T12:17:08;3.22;;;1.15;;
41643;SDS011;44236;48.098;11.582;2023-02-21T12:30:49;2.63;;;1.15;;
41643;SDS011;44236;48.098;11.582;2023-02-21T12:33:53;2.95;;;1.10;;
41643;SDS011;44236;48.098;11.582;2023-02-21T12:44:55;3.20;;;1.10;;
41643;SDS011;44236;48.098;11.582;2023-02-21T12:47:29;2.30;;;1.20;;
41643;SDS011;44236;48.098;11.582;2023-02-21T12:50:12;2.83;;;1.17;;
41643;SDS011;44236;48.098;11.582;2023-02-21T12:55:47;4.55;;;1.58;;
41643;SDS011;44236;48.098;11.582;2023-02-21T13:01:01;2.83;;;1.23;;
41643;SDS011;44236;48.098;11.582;2023-02-21T13:07:03;7.90;;;1.17;;
41643;SDS011;44236;48.098;11.582;2023-02-21T13:10:30;2.05;;;1.10;;
41643;SDS011;44236;48.098;11.582;2023-02-21T13:12:44;4.47;;;1.65;;
41643;SDS011;44236;48.098;11.582;2023-02-21T13:15:24;2.25;;;1.02;;
41643;SDS011;44236;48.098;11.582;2023-02-21T13:17:57;2.05;;;1.08;;
41643;SDS011;44236;48.098;11.582;2023-02-21T13:20:34;2.30;;;1.05;;
41643;SDS011;44236;48.098;11.582;2023-02-21T13:26:31;2.10;;;1.00;;
41643;SDS011;44236;48.098;11.582;2023-02-21T13:29:00;2.38;;;1.17;;
41643;SDS011;44236;48.098;11.582;2023-02-21T13:31:32;2.08;;;1.25;;
41643;SDS011;44236;48.098;11.582;2023-02-21T13:34:06;1.92;;;0.90;;
41643;SDS011;44236;48.098;11.582;2023-02-21T13:36:39;2.85;;;1.27;;
41643;SDS011;44236;48.098;11.582;2023-02-21T13:41:35;2.90;;;1.17;;
41643;SDS011;44236;48.098;11.582;2023-02-21T13:44:24;3.17;;;1.20;;
41643;SDS011;44236;48.098;11.582;2023-02-21T13:47:04;1.77;;;1.05;;
41643;SDS011;44236;48.098;11.582;2023-02-21T13:49:47;1.70;;;0.98;;
41643;SDS011;44236;48.098;11.582;2023-02-21T13:57:35;1.75;;;0.90;;
41643;SDS011;44236;48.098;11.582;2023-02-21T14:02:59;1.87;;;0.97;;
41643;SDS011;44236;48.098;11.582;2023-02-21T14:08:26;3.63;;;1.15;;
41643;SDS011;44236;48.098;11.582;2023-02-21T14:11:00;1.65;;;0.90;;
41643;SDS011;44236;48.098;11.582;2023-02-21T14:13:40;2.08;;;1.10;;
41643;SDS011;44236;48.098;11.582;2023-02-21T14:18:51;0.90;;;0.70;;
41643;SDS011;44236;48.098;11.582;2023-02-21T14:27:29;1.45;;;0.90;;
41643;SDS011;44236;48.098;11.582;2023-02-21T14:29:32;2.85;;;1.02;;
41643;SDS011;44236;48.098;11.582;2023-02-21T14:39:38;2.03;;;1.00;;
41643;SDS011;44236;48.098;11.582;2023-02-21T14:42:16;1.63;;;0.90;;
41643;SDS011;44236;48.098;11.582;2023-02-21T14:44:54;1.58;;;0.98;;
41643;SDS011;44236;48.098;11.582;2023-02-21T14:52:23;2.33;;;0.85;;
41643;SDS011;44236;48.098;11.582;2023-02-21T14:57:52;1.98;;;1.00;;
41643;SDS011;44236;48.098;11.582;2023-02-21T15:03:47;2.30;;;1.10;;
41643;SDS011;44236;48.098;11.582;2023-02-21T15:06:19;1.85;;;0.90;;
41643;SDS011;44236;48.098;11.582;2023-02-21T15:08:49;2.05;;;1.38;;
41643;SDS011;44236;48.098;11.582;2023-02-21T15:11:26;1.40;;;0.90;;
41643;SDS011;44236;48.098;11.582;2023-02-21T15:14:10;1.40;;;0.88;;
41643;SDS011;44236;48.098;11.582;2023-02-21T15:16:48;2.20;;;0.90;;
41643;SDS011;44236;48.098;11.582;2023-02-21T15:27:32;2.20;;;0.95;;
41643;SDS011;44236;48.098;11.582;2023-02-21T15:30:04;1.75;;;0.98;;
41643;SDS011;44236;48.098;11.582;2023-02-21T15:32:39;1.95;;;0.93;;
41643;SDS011;44236;48.098;11.582;2023-02-21T15:35:05;0.70;;;0.60;;
41643;SDS011;44236;48.098;11.582;2023-02-21T15:37:38;1.70;;;0.98;;
41643;SDS011;44236;48.098;11.582;2023-02-21T15:40:17;1.85;;;0.70;;
41643;SDS011;44236;48.098;11.582;2023-02-21T15:42:46;1.60;;;0.85;;
41643;SDS011;44236;48.098;11.582;2023-02-21T15:45:26;1.23;;;0.70;;
41643;SDS011;44236;48.098;11.582;2023-02-21T15:47:53;0.80;;;0.70;;
41643;SDS011;44236;48.098;11.582;2023-02-21T15:53:09;1.48;;;0.73;;
41643;SDS011;44236;48.098;11.582;2023-02-21T15:55:37;2.03;;;0.98;;
41643;SDS011;44236;48.098;11.582;2023-02-21T16:05:50;5.57;;;1.10;;
41643;SDS011;44236;48.098;11.582;2023-02-21T16:08:26;12.27;;;1.35;;
41643;SDS011;44236;48.098;11.582;2023-02-21T16:10:52;3.97;;;1.50;;
41643;SDS011;44236;48.098;11.582;2023-02-21T16:13:33;5.22;;;1.80;;
41643;SDS011;44236;48.098;11.582;2023-02-21T16:16:00;4.60;;;1.40;;
41643;SDS011;44236;48.098;11.582;2023-02-21T16:18:26;4.18;;;1.48;;
41643;SDS011;44236;48.098;11.582;2023-02-21T16:20:58;3.63;;;1.30;;
41643;SDS011;44236;48.098;11.582;2023-02-21T16:23:37;3.60;;;1.45;;
41643;SDS011;44236;48.098;11.582;2023-02-21T16:28:36;3.08;;;1.33;;
41643;SDS011;44236;48.098;11.582;2023-02-21T16:31:05;4.93;;;1.38;;
41643;SDS011;44236;48.098;11.582;2023-02-21T16:33:38;6.88;;;1.55;;
41643;SDS011;44236;48.098;11.582;2023-02-21T16:36:09;5.75;;;2.00;;
41643;SDS011;44236;48.098;11.582;2023-02-21T16:38:43;8.35;;;2.30;;
41643;SDS011;44236;48.098;11.582;2023-02-21T16:41:12;6.70;;;2.80;;
41643;SDS011;44236;48.098;11.582;2023-02-21T16:43:39;7.65;;;3.03;;
41643;SDS011;44236;48.098;11.582;2023-02-21T16:46:04;12.82;;;3.33;;
41643;SDS011;44236;48.098;11.582;2023-02-21T16:48:30;9.70;;;3.33;;
41643;SDS011;44236;48.098;11.582;2023-02-21T16:50:57;14.15;;;4.03;;
41643;SDS011;44236;48.098;11.582;2023-02-21T16:53:27;10.60;;;3.22;;
41643;SDS011;44236;48.098;11.582;2023-02-21T16:55:53;14.60;;;3.60;;
41643;SDS011;44236;48.098;11.582;2023-02-21T17:00:56;11.60;;;3.22;;
41643;SDS011;44236;48.098;11.582;2023-02-21T17:03:25;9.90;;;3.30;;
41643;SDS011;44236;48.098;11.582;2023-02-21T17:05:52;13.63;;;4.80;;
41643;SDS011;44236;48.098;11.582;2023-02-21T17:08:19;12.68;;;3.72;;
41643;SDS011;44236;48.098;11.582;2023-02-21T17:10:45;12.43;;;4.63;;
41643;SDS011;44236;48.098;11.582;2023-02-21T17:13:11;12.80;;;4.90;;
41643;SDS011;44236;48.098;11.582;2023-02-21T17:15:36;12.80;;;4.95;;
41643;SDS011;44236;48.098;11.582;2023-02-21T17:18:02;16.50;;;5.18;;
41643;SDS011;44236;48.098;11.582;2023-02-21T17:20:29;16.05;;;5.60;;
41643;SDS011;44236;48.098;11.582;2023-02-21T17:22:55;14.88;;;5.15;;
41643;SDS011;44236;48.098;11.582;2023-02-21T17:25:23;20.73;;;5.20;;
41643;SDS011;44236;48.098;11.582;2023-02-21T17:27:49;16.65;;;4.82;;
41643;SDS011;44236;48.098;11.582;2023-02-21T17:30:15;11.93;;;4.32;;
41643;SDS011;44236;48.098;11.582;2023-02-21T17:32:42;14.95;;;5.50;;
41643;SDS011;44236;48.098;11.582;2023-02-21T17:35:10;16.95;;;5.30;;
41643;SDS011;44236;48.098;11.582;2023-02-21T17:37:38;15.63;;;5.72;;
41643;SDS011;44236;48.098;11.582;2023-02-21T17:40:05;14.75;;;4.85;;
41643;SDS011;44236;48.098;11.582;2023-02-21T17:42:31;12.38;;;5.75;;
41643;SDS011;44236;48.098;11.582;2023-02-21T17:44:56;16.45;;;5.05;;
41643;SDS011;44236;48.098;11.582;2023-02-21T17:47:24;13.48;;;4.90;;
41643;SDS011;44236;48.098;11.582;2023-02-21T17:49:49;12.18;;;5.32;;
41643;SDS011;44236;48.098;11.582;2023-02-21T17:52:18;15.93;;;4.72;;
41643;SDS011;44236;48.098;11.582;2023-02-21T17:54:44;13.02;;;4.63;;
41643;SDS011;44236;48.098;11.582;2023-02-21T17:57:10;13.43;;;4.78;;
41643;SDS011;44236;48.098;11.582;2023-02-21T17:59:37;11.43;;;4.25;;
41643;SDS011;44236;48.098;11.582;2023-02-21T18:02:03;19.13;;;4.65;;
41643;SDS011;44236;48.098;11.582;2023-02-21T18:04:30;12.20;;;4.10;;